Weather at Cleveland Municipal Airport

Public forecast

Using degrees Fahrenheit for public forecast. Weather courtesy of forecast.io.

Current aviation weather report (METAR) for Cleveland Municipal Airport

Retrieved 2020/09/28 02:35 UTC (0 seconds ago):

K6R3 280235Z AUTO 18006KT 7SM SCT010 25/24 A2977 RMK AO2 T02520241

Closest aviation forecast (TAF) to Cleveland Municipal Airport

Closest forecast is Conroe-North Houston Regional Airport, 21.1 nm (39.0 km) W. Retrieved 2020-09-28 00:22 UTC (2 hours ago):

TAF KCXO 272320Z 2800/2824 16011KT P6SM FEW050 FM280600 17008KT P6SM SCT015 BKN025 FM280900 27008KT 6SM BR VCSH FEW008 BKN015 FM281100 35015G25KT P6SM VCSH BKN015 BKN030 FM281500 35015G25KT P6SM FEW030 BKN050 BKN070 FM282000 35010G20KT P6SM FEW120